Time;durP1;ratioP1;P1;durP2;ratioP2;P2;SDS_P1;SDS_P2;PMS_P1;PMS_P2;Temp;Humidity;BMP_temperature;BMP_pressure;BME280_temperature;BME280_humidity;BME280_pressure;Samples;Min_cycle;Max_cycle;Signal;HPM_P1;HPM_P2
2022/10/29 00:01:39;;;;;;;398.97;371.93;;;13.00;31.00;;;;;;4955566;28;20180;-69
2022/10/29 00:04:05;;;;;;;314.10;291.07;;;13.00;30.60;;;;;;4955800;28;20913;-69
2022/10/29 00:06:31;;;;;;;558.53;523.00;;;13.00;29.90;;;;;;4955832;28;20188;-69
2022/10/29 00:08:56;;;;;;;497.57;464.33;;;13.00;29.60;;;;;;4955728;28;20552;-69
2022/10/29 00:11:22;;;;;;;471.60;439.73;;;13.00;29.80;;;;;;4954763;28;20230;-69
2022/10/29 00:13:53;;;;;;;591.37;554.50;;;12.90;29.90;;;;;;4955668;28;20210;-69
2022/10/29 00:16:22;;;;;;;455.00;425.40;;;12.90;29.60;;;;;;4956010;28;20604;-69
2022/10/29 00:18:48;;;;;;;437.60;408.80;;;12.90;29.70;;;;;;4954336;28;20425;-69
2022/10/29 00:21:16;;;;;;;324.37;302.13;;;12.80;29.90;;;;;;4955227;28;20517;-69
2022/10/29 00:23:41;;;;;;;588.40;551.33;;;12.80;30.00;;;;;;4955576;28;20200;-69
2022/10/29 00:26:08;;;;;;;411.27;383.63;;;12.80;30.80;;;;;;4955606;28;20914;-69
2022/10/29 00:28:34;;;;;;;280.17;259.60;;;12.80;30.00;;;;;;4955308;28;20177;-69
2022/10/29 00:31:12;;;;;;;323.80;301.47;;;12.80;30.00;;;;;;4955048;28;20845;-69
2022/10/29 00:33:37;;;;;;;325.17;301.50;;;12.80;29.70;;;;;;4954844;28;20472;-69
2022/10/29 00:36:05;;;;;;;353.77;329.57;;;12.70;30.10;;;;;;4955223;28;20414;-69
2022/10/29 00:38:33;;;;;;;381.10;354.97;;;12.70;30.70;;;;;;4953776;28;20185;-69
2022/10/29 00:40:59;;;;;;;391.73;363.87;;;12.70;30.40;;;;;;4954861;28;20616;-69
2022/10/29 00:43:26;;;;;;;152.13;139.40;;;12.80;30.70;;;;;;4954994;28;20841;-69
2022/10/29 00:46:04;;;;;;;498.67;465.90;;;12.80;29.90;;;;;;4955249;28;20596;-69
2022/10/29 00:48:34;;;;;;;352.73;328.70;;;12.80;30.10;;;;;;4955651;28;20913;-69
2022/10/29 00:51:03;;;;;;;222.30;205.17;;;12.80;30.50;;;;;;4954629;28;20432;-69
2022/10/29 00:53:33;;;;;;;241.83;223.53;;;12.80;30.00;;;;;;4954649;28;20476;-69
2022/10/29 00:55:59;;;;;;;400.30;372.47;;;12.80;30.10;;;;;;4955023;28;20485;-69
2022/10/29 00:58:26;;;;;;;423.53;396.47;;;12.80;30.00;;;;;;4954675;28;20442;-69
2022/10/29 01:00:52;;;;;;;465.33;435.40;;;12.80;29.80;;;;;;4954226;28;20424;-69
2022/10/29 01:03:18;;;;;;;149.70;136.57;;;12.80;29.90;;;;;;4953336;28;20816;-69
2022/10/29 01:05:45;;;;;;;156.60;143.97;;;12.70;30.10;;;;;;4954570;28;20270;-69
2022/10/29 01:08:12;;;;;;;275.70;259.07;;;12.70;30.50;;;;;;4954543;28;20178;-69
2022/10/29 01:10:40;;;;;;;319.20;297.87;;;12.60;30.70;;;;;;4954487;28;20508;-69
2022/10/29 01:13:54;;;;;;;687.33;640.67;;;12.60;31.00;;;;;;4954228;28;20497;-69
2022/10/29 01:16:31;;;;;;;385.83;363.23;;;12.60;31.20;;;;;;4950751;28;20513;-69
2022/10/29 01:19:05;;;;;;;470.43;438.63;;;12.60;31.70;;;;;;4954597;28;20413;-69
2022/10/29 01:21:44;;;;;;;465.43;436.47;;;12.60;31.50;;;;;;4954186;28;20429;-68
2022/10/29 01:24:43;;;;;;;335.27;311.73;;;12.70;31.10;;;;;;4954541;28;20419;-69
2022/10/29 01:27:37;;;;;;;518.00;483.83;;;12.70;31.20;;;;;;4954435;28;20421;-69
2022/10/29 01:30:05;;;;;;;674.53;631.77;;;12.80;30.50;;;;;;4952959;28;20517;-69
2022/10/29 01:32:39;;;;;;;448.10;417.23;;;12.80;30.40;;;;;;4953963;28;20436;-69
2022/10/29 01:35:24;;;;;;;391.70;365.13;;;12.80;30.40;;;;;;4954351;28;20416;-69
2022/10/29 01:37:55;;;;;;;731.17;686.00;;;12.90;30.40;;;;;;4953044;28;20426;-69
2022/10/29 01:40:34;;;;;;;618.30;578.90;;;12.90;30.70;;;;;;4953008;28;20418;-69
2022/10/29 01:43:38;;;;;;;465.40;434.03;;;12.90;30.50;;;;;;4953775;28;20957;-70
2022/10/29 01:46:24;;;;;;;348.00;324.80;;;13.00;29.90;;;;;;4953570;29;20435;-70
2022/10/29 01:48:54;;;;;;;392.40;365.40;;;13.00;30.20;;;;;;4953889;28;20452;-70
2022/10/29 01:51:22;;;;;;;426.40;395.27;;;13.00;29.90;;;;;;4953811;28;20885;-69
2022/10/29 01:53:48;;;;;;;310.00;286.50;;;13.10;29.50;;;;;;4954517;28;20972;-70
2022/10/29 01:56:14;;;;;;;532.57;496.70;;;13.10;29.30;;;;;;4952653;28;20416;-70
2022/10/29 01:58:45;;;;;;;137.20;124.63;;;13.10;29.70;;;;;;4953876;28;20449;-70
2022/10/29 02:01:29;;;;;;;323.30;299.77;;;13.10;30.00;;;;;;4953646;28;20239;-70
2022/10/29 02:04:47;;;;;;;282.23;260.40;;;13.10;29.70;;;;;;4953912;28;20447;-69
2022/10/29 02:07:25;;;;;;;622.07;582.73;;;13.20;30.00;;;;;;4931665;28;20519;-69
2022/10/29 02:10:04;;;;;;;359.50;333.60;;;13.20;28.90;;;;;;4953704;28;20443;-69
2022/10/29 02:12:38;;;;;;;697.23;652.57;;;13.30;29.00;;;;;;4953533;28;20855;-69
2022/10/29 02:15:13;;;;;;;436.40;408.30;;;13.20;28.90;;;;;;4953765;28;20962;-69
2022/10/29 02:17:39;;;;;;;686.80;642.13;;;13.20;28.90;;;;;;4953851;28;20415;-69
2022/10/29 02:20:07;;;;;;;574.23;536.87;;;13.10;29.00;;;;;;4953806;28;20939;-70
2022/10/29 02:22:32;;;;;;;418.73;391.87;;;13.00;29.40;;;;;;4953557;28;20249;-70
2022/10/29 02:24:58;;;;;;;487.80;456.07;;;13.00;29.70;;;;;;4953864;28;20425;-70
2022/10/29 02:27:23;;;;;;;276.03;254.80;;;13.00;29.90;;;;;;4952472;28;20244;-70
2022/10/29 02:29:49;;;;;;;301.53;280.17;;;13.00;30.00;;;;;;4953595;28;20191;-70
2022/10/29 02:32:14;;;;;;;370.93;345.10;;;13.00;29.30;;;;;;4952161;28;20726;-70
2022/10/29 02:34:40;;;;;;;527.00;493.70;;;13.10;29.10;;;;;;4956858;28;20215;-70
2022/10/29 02:37:05;;;;;;;514.83;478.73;;;13.00;29.40;;;;;;4957360;28;20182;-70
2022/10/29 02:39:31;;;;;;;677.93;635.03;;;13.10;29.60;;;;;;4957329;28;20189;-70
2022/10/29 02:41:57;;;;;;;475.20;444.73;;;13.00;29.50;;;;;;4955837;28;20292;-70
2022/10/29 02:44:23;;;;;;;526.27;490.63;;;13.10;28.90;;;;;;4957459;28;20197;-70
2022/10/29 02:46:48;;;;;;;368.00;343.03;;;13.20;28.90;;;;;;4958145;28;20224;-69
2022/10/29 02:49:14;;;;;;;272.60;253.37;;;13.20;28.90;;;;;;4957408;28;20217;-69
2022/10/29 02:51:39;;;;;;;333.80;311.17;;;13.30;28.70;;;;;;4957205;28;20207;-70
2022/10/29 02:54:05;;;;;;;405.53;378.70;;;13.30;28.70;;;;;;4955904;28;20222;-70
2022/10/29 02:56:30;;;;;;;617.80;580.33;;;13.20;28.90;;;;;;4957215;28;20174;-70
2022/10/29 02:58:56;;;;;;;438.23;407.33;;;13.30;28.70;;;;;;4957086;28;20181;-70
2022/10/29 03:01:22;;;;;;;518.37;484.57;;;13.40;28.40;;;;;;4956724;28;20259;-70
2022/10/29 03:03:47;;;;;;;375.23;348.83;;;13.40;28.50;;;;;;4956583;28;20641;-69
2022/10/29 03:06:15;;;;;;;322.10;303.40;;;13.40;27.70;;;;;;4956790;28;20193;-70
2022/10/29 03:08:41;;;;;;;330.43;311.57;;;13.40;27.80;;;;;;4956743;28;20523;-70
2022/10/29 03:11:07;;;;;;;565.03;527.87;;;13.40;28.10;;;;;;4956449;28;20423;-70
2022/10/29 03:13:32;;;;;;;536.37;501.40;;;13.40;28.30;;;;;;4955071;28;20206;-70
2022/10/29 03:15:58;;;;;;;438.67;411.50;;;13.40;28.30;;;;;;4956564;28;20429;-70
2022/10/29 03:18:23;;;;;;;386.60;362.53;;;13.40;28.30;;;;;;4956448;28;20191;-70
2022/10/29 03:20:49;;;;;;;317.87;297.57;;;13.40;28.10;;;;;;4956132;28;20184;-70
2022/10/29 03:23:14;;;;;;;697.17;652.53;;;13.30;28.20;;;;;;4956356;28;20269;-70
2022/10/29 03:25:40;;;;;;;183.03;167.37;;;13.30;28.50;;;;;;4956375;28;20298;-70
2022/10/29 03:28:05;;;;;;;628.10;586.40;;;13.30;29.00;;;;;;4956241;28;20493;-68
2022/10/29 03:30:31;;;;;;;553.73;517.80;;;13.30;28.70;;;;;;4956529;28;20269;-67
2022/10/29 03:32:57;;;;;;;654.77;609.53;;;13.30;28.70;;;;;;4956374;28;20722;-67
2022/10/29 03:35:22;;;;;;;524.33;489.70;;;13.40;28.80;;;;;;4956761;28;20191;-68
2022/10/29 03:37:49;;;;;;;622.13;580.63;;;13.30;28.90;;;;;;4956817;28;20257;-67
2022/10/29 03:40:16;;;;;;;640.87;599.77;;;13.30;29.00;;;;;;4956369;28;20186;-67
2022/10/29 03:42:41;;;;;;;503.10;470.40;;;13.40;28.50;;;;;;4955666;28;20813;-68
2022/10/29 03:45:09;;;;;;;486.53;453.53;;;13.40;29.10;;;;;;4954997;28;20422;-68
2022/10/29 03:47:34;;;;;;;605.67;567.30;;;13.40;29.10;;;;;;4956363;28;20263;-68
2022/10/29 03:50:00;;;;;;;728.87;681.13;;;13.40;29.10;;;;;;4955197;28;20934;-68
2022/10/29 03:52:26;;;;;;;649.63;608.47;;;13.40;29.10;;;;;;4956077;28;20213;-68
2022/10/29 03:54:51;;;;;;;601.93;561.30;;;13.40;29.10;;;;;;4956424;28;20295;-68
2022/10/29 03:57:17;;;;;;;773.47;724.03;;;13.30;29.00;;;;;;4956319;28;20200;-68
2022/10/29 03:59:42;;;;;;;822.03;764.93;;;13.40;29.10;;;;;;4956591;28;20664;-68
2022/10/29 04:02:09;;;;;;;587.03;547.43;;;13.40;29.10;;;;;;4956075;28;20204;-68
2022/10/29 04:04:34;;;;;;;649.33;610.37;;;13.30;29.20;;;;;;4955991;28;20643;-67
2022/10/29 04:07:00;;;;;;;747.83;695.87;;;13.30;29.60;;;;;;4955896;28;20413;-67
2022/10/29 04:09:25;;;;;;;118.00;106.43;;;13.30;29.80;;;;;;4955958;28;20185;-67
2022/10/29 04:11:51;;;;;;;568.23;531.33;;;13.30;29.90;;;;;;4955618;28;20209;-67
2022/10/29 04:14:16;;;;;;;220.40;202.73;;;13.40;30.00;;;;;;4955835;28;20212;-67
2022/10/29 04:16:42;;;;;;;336.00;313.20;;;13.40;30.00;;;;;;4955465;29;20264;-67
2022/10/29 04:19:07;;;;;;;736.37;686.73;;;13.50;30.20;;;;;;4955424;28;20195;-67
2022/10/29 04:21:33;;;;;;;576.13;538.60;;;13.50;29.60;;;;;;4955279;28;20220;-68
2022/10/29 04:23:58;;;;;;;730.90;686.03;;;13.50;29.70;;;;;;4955349;28;20654;-67
2022/10/29 04:26:24;;;;;;;441.83;411.53;;;13.50;29.70;;;;;;4955621;28;20193;-68
2022/10/29 04:28:50;;;;;;;645.23;605.67;;;13.50;29.70;;;;;;4955452;28;20653;-67
2022/10/29 04:31:17;;;;;;;521.90;487.60;;;13.50;29.80;;;;;;4954971;28;20185;-68
2022/10/29 04:33:43;;;;;;;633.23;590.93;;;13.50;29.80;;;;;;4955422;28;20893;-67
2022/10/29 04:36:09;;;;;;;452.73;425.43;;;13.50;29.60;;;;;;4955474;28;20479;-67
2022/10/29 04:38:34;;;;;;;413.40;388.60;;;13.50;29.80;;;;;;4955258;28;20459;-67
2022/10/29 04:41:01;;;;;;;236.13;218.17;;;13.50;29.70;;;;;;4954994;28;20419;-67
2022/10/29 04:43:27;;;;;;;747.07;697.80;;;13.50;30.10;;;;;;4954261;28;20317;-68
2022/10/29 04:45:54;;;;;;;372.40;346.37;;;13.60;29.20;;;;;;4955231;28;20430;-67
2022/10/29 04:48:21;;;;;;;384.57;360.70;;;13.50;29.80;;;;;;4955075;28;20500;-68
2022/10/29 04:50:47;;;;;;;557.33;521.37;;;13.50;29.50;;;;;;4954608;28;20447;-68
2022/10/29 04:53:12;;;;;;;696.97;653.40;;;13.50;29.60;;;;;;4955350;28;20480;-67
2022/10/29 04:55:38;;;;;;;125.10;113.27;;;13.50;29.70;;;;;;4954593;28;20181;-69
2022/10/29 04:58:05;;;;;;;302.40;280.80;;;13.40;30.00;;;;;;4954774;28;20417;-69
2022/10/29 05:00:31;;;;;;;493.57;459.40;;;13.50;29.80;;;;;;4954506;28;20802;-70
2022/10/29 05:02:56;;;;;;;324.30;301.03;;;13.50;29.70;;;;;;4954203;28;20444;-70
2022/10/29 05:05:22;;;;;;;468.10;436.07;;;13.50;30.00;;;;;;4954447;28;20244;-70
2022/10/29 05:07:48;;;;;;;497.83;464.30;;;13.50;29.50;;;;;;4954508;28;20175;-70
2022/10/29 05:10:13;;;;;;;682.70;637.23;;;13.40;30.30;;;;;;4953108;28;20215;-70
2022/10/29 05:12:39;;;;;;;249.87;230.47;;;13.20;31.30;;;;;;4954412;28;20441;-70
2022/10/29 05:15:06;;;;;;;552.93;516.87;;;13.30;31.80;;;;;;4954775;28;20212;-70
2022/10/29 05:17:36;;;;;;;590.93;552.50;;;13.40;30.40;;;;;;4953093;28;20269;-70
2022/10/29 05:20:02;;;;;;;670.70;627.90;;;13.20;31.00;;;;;;4954330;28;20761;-70
2022/10/29 05:22:27;;;;;;;295.50;274.73;;;13.20;30.90;;;;;;4954009;28;21015;-70
2022/10/29 05:24:53;;;;;;;196.87;182.80;;;13.20;31.20;;;;;;4954160;28;20684;-70
2022/10/29 05:27:18;;;;;;;163.30;148.83;;;13.20;31.00;;;;;;4954668;28;20191;-70
2022/10/29 05:29:44;;;;;;;464.27;434.47;;;13.20;31.20;;;;;;4955062;28;20196;-69
2022/10/29 05:32:09;;;;;;;507.17;472.47;;;13.10;30.80;;;;;;4954113;28;20195;-69
2022/10/29 05:34:35;;;;;;;310.43;288.30;;;13.00;31.10;;;;;;4953394;28;20226;-68
2022/10/29 05:37:01;;;;;;;606.77;567.13;;;12.90;31.30;;;;;;4954547;28;20184;-68
2022/10/29 05:39:26;;;;;;;302.13;281.03;;;12.90;32.40;;;;;;4954019;28;20258;-68
2022/10/29 05:41:52;;;;;;;504.20;471.23;;;12.80;31.70;;;;;;4953684;28;20199;-68
2022/10/29 05:44:17;;;;;;;139.83;127.57;;;12.70;31.80;;;;;;4954003;28;20211;-68
2022/10/29 05:46:43;;;;;;;439.70;407.40;;;12.60;32.10;;;;;;4953909;28;20602;-67
2022/10/29 05:49:11;;;;;;;648.30;609.80;;;12.60;33.20;;;;;;4954127;28;20197;-68
2022/10/29 05:51:36;;;;;;;684.00;643.00;;;12.60;33.20;;;;;;4953539;28;20190;-68
2022/10/29 05:54:02;;;;;;;497.57;465.33;;;12.50;33.60;;;;;;4953821;28;20516;-68
2022/10/29 05:56:27;;;;;;;593.53;556.63;;;12.40;34.00;;;;;;4953916;28;20589;-68
2022/10/29 05:58:53;;;;;;;505.60;473.90;;;12.30;34.90;;;;;;4953985;28;20185;-67
2022/10/29 06:01:18;;;;;;;338.93;315.87;;;12.30;35.20;;;;;;4953677;28;20185;-67
2022/10/29 06:03:45;;;;;;;401.93;377.60;;;12.20;36.10;;;;;;4953766;28;20201;-67
2022/10/29 06:06:10;;;;;;;226.00;210.33;;;12.20;35.60;;;;;;4954336;28;20202;-68
2022/10/29 06:08:36;;;;;;;648.33;607.40;;;12.10;35.90;;;;;;4955615;28;20789;-67
2022/10/29 06:11:02;;;;;;;677.50;635.10;;;12.10;36.40;;;;;;4957613;28;20260;-67
2022/10/29 06:13:28;;;;;;;682.20;636.73;;;12.00;36.70;;;;;;4957506;28;20205;-68
2022/10/29 06:15:57;;;;;;;629.90;586.20;;;11.90;37.20;;;;;;4957695;28;20449;-68
2022/10/29 06:18:23;;;;;;;264.27;243.73;;;11.90;38.00;;;;;;4956372;28;20422;-67
2022/10/29 06:20:48;;;;;;;456.87;425.17;;;11.90;37.90;;;;;;4957402;28;20767;-67
2022/10/29 06:23:14;;;;;;;362.87;338.53;;;11.90;37.90;;;;;;4957524;28;20621;-67
2022/10/29 06:25:39;;;;;;;198.43;182.53;;;11.90;37.90;;;;;;4957591;28;20182;-67
2022/10/29 06:28:08;;;;;;;445.80;416.67;;;12.00;37.90;;;;;;4957624;28;20269;-67
2022/10/29 06:30:35;;;;;;;568.10;529.80;;;12.00;37.90;;;;;;4957734;28;20241;-68
2022/10/29 06:33:02;;;;;;;701.23;658.47;;;12.00;37.90;;;;;;4957095;28;20433;-69
2022/10/29 06:35:28;;;;;;;590.30;550.37;;;12.00;37.90;;;;;;4957413;28;20424;-69
2022/10/29 06:37:54;;;;;;;626.00;583.27;;;12.00;38.20;;;;;;4957512;28;20516;-69
2022/10/29 06:40:20;;;;;;;518.90;487.87;;;12.10;38.00;;;;;;4957498;28;20182;-69
2022/10/29 06:42:45;;;;;;;445.83;420.93;;;12.10;38.10;;;;;;4956814;28;20230;-69
2022/10/29 06:45:11;;;;;;;450.10;421.57;;;12.10;38.00;;;;;;4957196;28;20193;-70
2022/10/29 06:47:44;;;;;;;506.43;475.77;;;12.20;38.10;;;;;;4957153;28;20264;-69
2022/10/29 06:50:11;;;;;;;661.87;619.30;;;12.20;38.10;;;;;;4957088;28;20190;-69
2022/10/29 06:52:37;;;;;;;655.33;612.93;;;12.30;38.20;;;;;;4955405;28;20800;-69
2022/10/29 06:55:05;;;;;;;431.80;401.77;;;12.30;38.20;;;;;;4955770;28;20461;-69
2022/10/29 06:57:31;;;;;;;524.20;489.40;;;12.30;38.00;;;;;;4957110;28;20425;-70
2022/10/29 06:59:56;;;;;;;403.43;380.20;;;12.40;36.60;;;;;;4956236;28;20433;-69
2022/10/29 07:02:22;;;;;;;759.63;708.27;;;12.50;36.70;;;;;;4950188;29;20469;-69
2022/10/29 07:04:48;;;;;;;384.97;358.27;;;12.60;36.30;;;;;;4952038;28;20433;-69
2022/10/29 07:07:14;;;;;;;686.50;644.20;;;12.50;35.90;;;;;;4951970;28;20518;-69
2022/10/29 07:09:41;;;;;;;759.67;708.13;;;12.60;34.70;;;;;;4957363;28;20959;-70
2022/10/29 07:12:07;;;;;;;784.93;734.33;;;12.60;34.80;;;;;;4956270;28;20803;-70
2022/10/29 07:14:33;;;;;;;739.13;693.33;;;12.70;34.60;;;;;;4956622;28;20500;-70
2022/10/29 07:16:59;;;;;;;539.57;503.37;;;12.80;33.40;;;;;;4947592;28;20471;-70
2022/10/29 07:19:24;;;;;;;524.67;488.70;;;12.90;33.50;;;;;;4956353;28;20184;-70
2022/10/29 07:21:50;;;;;;;282.13;260.30;;;13.00;33.10;;;;;;4948071;28;20200;-70
2022/10/29 07:24:16;;;;;;;669.00;626.40;;;13.10;32.20;;;;;;4937338;29;20699;-71
2022/10/29 07:26:42;;;;;;;609.77;569.83;;;13.20;31.40;;;;;;4936687;29;20251;-70
2022/10/29 07:29:08;;;;;;;421.40;392.67;;;13.20;31.90;;;;;;4937260;29;20604;-70
2022/10/29 07:31:34;;;;;;;443.10;413.27;;;13.30;31.80;;;;;;4935529;29;20444;-70
2022/10/29 07:33:59;;;;;;;685.60;640.80;;;13.40;31.50;;;;;;4936997;29;20289;-70
2022/10/29 07:36:25;;;;;;;509.57;478.70;;;13.50;30.90;;;;;;4937062;29;20240;-70
2022/10/29 07:38:50;;;;;;;283.77;263.33;;;13.60;31.00;;;;;;4936934;29;20217;-70
2022/10/29 07:41:16;;;;;;;565.43;529.27;;;13.70;30.50;;;;;;4936874;29;20177;-71
2022/10/29 07:43:41;;;;;;;465.47;434.70;;;13.80;29.30;;;;;;4936859;29;20214;-71
2022/10/29 07:46:07;;;;;;;562.73;525.83;;;13.90;29.40;;;;;;4936916;29;20257;-71
2022/10/29 07:48:33;;;;;;;331.33;306.97;;;14.00;28.60;;;;;;4940008;29;20633;-71
2022/10/29 07:50:59;;;;;;;722.47;674.47;;;14.20;28.00;;;;;;4938796;29;20183;-71
2022/10/29 07:53:25;;;;;;;447.50;415.90;;;14.20;27.40;;;;;;4987030;23;20232;-69
2022/10/29 07:55:55;;;;;;;635.70;592.40;;;14.30;27.80;;;;;;4981709;28;20428;-70
2022/10/29 07:58:20;;;;;;;627.63;584.97;;;14.40;27.20;;;;;;4976842;28;20258;-69
2022/10/29 08:00:46;;;;;;;692.40;642.63;;;14.50;26.90;;;;;;4959542;28;20497;-68
2022/10/29 08:03:12;;;;;;;471.30;437.63;;;14.60;26.10;;;;;;4977408;28;20536;-71
2022/10/29 08:05:38;;;;;;;498.40;462.67;;;14.60;25.80;;;;;;4974093;28;20182;-71
2022/10/29 08:08:04;;;;;;;659.57;613.93;;;14.70;25.80;;;;;;4961063;29;20425;-71
2022/10/29 08:10:31;;;;;;;443.53;411.60;;;14.80;24.00;;;;;;4961326;28;20498;-73
2022/10/29 08:12:59;;;;;;;605.60;564.23;;;15.00;23.60;;;;;;4977655;28;20458;-73
2022/10/29 08:15:26;;;;;;;525.97;488.40;;;15.10;22.40;;;;;;4976467;28;20436;-72
2022/10/29 08:17:51;;;;;;;491.70;455.50;;;15.10;22.30;;;;;;4973260;28;20436;-71
2022/10/29 08:20:17;;;;;;;670.33;622.70;;;15.10;22.70;;;;;;4973425;28;20520;-71
2022/10/29 08:22:43;;;;;;;713.73;665.07;;;15.30;22.00;;;;;;4970412;28;20201;-70
2022/10/29 08:25:10;;;;;;;579.60;538.23;;;15.20;21.90;;;;;;4971126;28;20435;-72
2022/10/29 08:27:35;;;;;;;339.63;313.27;;;15.30;22.00;;;;;;4968994;28;20710;-70
2022/10/29 08:30:01;;;;;;;444.93;411.60;;;15.40;22.00;;;;;;4970051;28;20421;-70
2022/10/29 08:32:27;;;;;;;416.23;385.40;;;15.40;21.50;;;;;;4970045;28;20209;-72
2022/10/29 08:34:53;;;;;;;724.97;675.00;;;15.60;20.50;;;;;;4970165;28;20205;-75
2022/10/29 08:52:37;;;;;;;757.77;701.47;;;16.80;19.70;;;;;;5085136;27;20558;-72
2022/10/29 08:55:14;;;;;;;809.17;747.20;;;17.10;18.90;;;;;;5085153;28;20424;-72
2022/10/29 08:57:48;;;;;;;593.73;550.23;;;17.00;18.90;;;;;;5086034;28;20452;-72
2022/10/29 09:00:19;;;;;;;786.10;727.97;;;16.90;18.80;;;;;;5069896;28;20459;-71
2022/10/29 09:02:45;;;;;;;623.50;578.30;;;16.90;18.80;;;;;;5065701;28;20562;-73
2022/10/29 09:05:13;;;;;;;894.80;824.10;;;16.90;18.80;;;;;;5085336;22;21072;-71
2022/10/29 09:07:53;;;;;;;719.87;668.07;;;17.00;18.90;;;;;;5064645;28;20444;-71
2022/10/29 09:10:31;;;;;;;632.97;586.80;;;17.10;18.90;;;;;;5064736;28;20511;-71
2022/10/29 09:13:08;;;;;;;948.40;873.17;;;17.10;17.90;;;;;;5062619;28;20523;-71
2022/10/29 09:16:11;;;;;;;727.60;673.30;;;17.20;18.40;;;;;;5066728;28;20809;-71
2022/10/29 09:19:09;;;;;;;615.47;570.67;;;17.40;18.10;;;;;;5100969;28;20415;-75
2022/10/29 09:21:54;;;;;;;303.47;281.90;;;17.50;17.60;;;;;;5069663;28;20464;-70
2022/10/29 09:24:39;;;;;;;625.97;582.87;;;17.60;17.30;;;;;;5064855;28;20862;-71
2022/10/29 09:27:33;;;;;;;326.27;306.53;;;17.60;18.10;;;;;;5060382;28;20432;-72
2022/10/29 09:30:22;;;;;;;850.17;786.23;;;17.70;17.30;;;;;;5071171;28;20872;-71
2022/10/29 09:33:06;;;;;;;275.53;257.57;;;17.90;17.10;;;;;;5078899;28;20402;-71
2022/10/29 09:35:43;;;;;;;865.93;799.87;;;18.10;16.50;;;;;;5095398;28;20427;-72
2022/10/29 09:38:14;;;;;;;951.10;878.07;;;18.20;16.30;;;;;;5091273;28;20792;-70
2022/10/29 09:40:42;;;;;;;816.20;754.23;;;18.30;15.60;;;;;;5080720;28;20790;-70
2022/10/29 09:43:17;;;;;;;458.97;427.87;;;18.30;15.40;;;;;;5066766;28;21005;-71
2022/10/29 09:46:01;;;;;;;922.13;851.30;;;18.40;15.40;;;;;;5079141;28;20434;-70
2022/10/29 09:48:53;;;;;;;1000.93;922.20;;;18.60;15.60;;;;;;5070948;28;20428;-70
2022/10/29 09:51:48;;;;;;;610.83;566.13;;;18.70;15.00;;;;;;5066655;28;20417;-70
2022/10/29 09:54:14;;;;;;;940.20;866.93;;;18.90;14.20;;;;;;5086045;28;20423;-70
2022/10/29 09:56:42;;;;;;;538.73;500.57;;;18.90;14.50;;;;;;5086978;28;20837;-70
2022/10/29 09:59:41;;;;;;;687.27;636.43;;;19.00;13.80;;;;;;5088082;28;20418;-70
2022/10/29 10:02:28;;;;;;;832.07;766.83;;;19.20;13.60;;;;;;5084702;28;20889;-71
2022/10/29 10:05:06;;;;;;;861.97;794.10;;;19.20;13.20;;;;;;5074235;28;20447;-71
2022/10/29 10:07:32;;;;;;;749.13;692.80;;;19.30;13.20;;;;;;5073272;28;20782;-70
2022/10/29 10:09:59;;;;;;;780.77;722.53;;;19.40;13.40;;;;;;5074452;28;20408;-70
2022/10/29 10:12:25;;;;;;;396.60;371.53;;;19.50;13.30;;;;;;5072951;28;20183;-70
2022/10/29 10:15:21;;;;;;;618.60;576.73;;;19.60;13.40;;;;;;5074241;28;20745;-70
2022/10/29 10:18:14;;;;;;;750.73;693.17;;;19.80;13.40;;;;;;5053143;28;20201;-70
2022/10/29 10:21:02;;;;;;;815.47;755.70;;;19.80;12.60;;;;;;5054160;28;20453;-70
2022/10/29 10:23:47;;;;;;;532.60;500.00;;;19.80;12.40;;;;;;5054249;28;20956;-70
2022/10/29 10:26:35;;;;;;;791.93;731.23;;;19.80;12.60;;;;;;5053727;28;20550;-70
2022/10/29 10:29:13;;;;;;;716.17;667.03;;;19.80;12.70;;;;;;5048048;28;20491;-70
2022/10/29 10:31:39;;;;;;;846.10;781.13;;;19.90;12.60;;;;;;5053216;28;20439;-70
2022/10/29 10:34:13;;;;;;;782.17;725.50;;;20.00;12.60;;;;;;5059103;28;20788;-70
2022/10/29 10:36:42;;;;;;;874.40;807.50;;;20.10;12.80;;;;;;5054478;28;20449;-70
2022/10/29 10:39:19;;;;;;;931.57;859.20;;;20.30;12.60;;;;;;5052367;28;20464;-70
2022/10/29 10:41:44;;;;;;;533.13;497.37;;;20.30;13.00;;;;;;5053174;28;20486;-71
2022/10/29 10:44:12;;;;;;;537.07;504.60;;;20.50;12.70;;;;;;5046507;28;20459;-71
2022/10/29 10:46:41;;;;;;;757.30;701.57;;;20.70;12.60;;;;;;5052114;28;20194;-71
2022/10/29 10:49:29;;;;;;;637.03;593.17;;;20.80;12.40;;;;;;5063496;28;20450;-72
2022/10/29 10:51:56;;;;;;;735.80;680.13;;;20.90;11.70;;;;;;5071785;28;20418;-73
2022/10/29 10:54:59;;;;;;;634.73;590.57;;;21.00;11.90;;;;;;5054287;28;20475;-72
2022/10/29 10:57:36;;;;;;;667.17;619.53;;;21.10;12.40;;;;;;5057689;28;20436;-72
2022/10/29 11:00:06;;;;;;;701.23;651.60;;;21.10;12.90;;;;;;5070772;28;20411;-72
2022/10/29 11:02:46;;;;;;;690.63;641.67;;;21.20;12.10;;;;;;5064498;28;20483;-72
2022/10/29 11:05:21;;;;;;;765.57;707.23;;;21.30;12.20;;;;;;5054381;28;20441;-72
2022/10/29 11:07:59;;;;;;;558.00;520.23;;;21.30;11.80;;;;;;5055076;28;20979;-73
2022/10/29 11:10:33;;;;;;;775.57;715.90;;;21.40;12.10;;;;;;5055417;28;20774;-72
2022/10/29 11:13:03;;;;;;;837.13;772.27;;;21.40;11.80;;;;;;5053597;28;20932;-72
2022/10/29 11:15:38;;;;;;;891.90;823.47;;;21.50;11.40;;;;;;5034507;28;20430;-72
2022/10/29 11:18:15;;;;;;;675.87;626.20;;;21.60;11.50;;;;;;5043416;28;20458;-73
2022/10/29 11:20:47;;;;;;;708.43;655.63;;;21.60;10.80;;;;;;5055698;28;20460;-72
2022/10/29 11:23:35;;;;;;;743.50;686.10;;;21.80;11.00;;;;;;5054742;28;20409;-73
2022/10/29 11:26:10;;;;;;;803.03;741.50;;;21.80;10.50;;;;;;5054771;28;20429;-72
2022/10/29 11:28:44;;;;;;;846.73;776.93;;;21.90;10.70;;;;;;5054137;28;20971;-72
2022/10/29 11:31:31;;;;;;;717.53;666.37;;;22.00;10.00;;;;;;5053888;28;20419;-72
2022/10/29 11:34:17;;;;;;;682.47;634.20;;;22.10;10.20;;;;;;5053538;28;20830;-72
2022/10/29 11:37:10;;;;;;;727.30;675.97;;;22.30;9.70;;;;;;5070893;28;20874;-72
2022/10/29 11:39:55;;;;;;;868.00;799.73;;;22.30;9.70;;;;;;5072808;28;20428;-72
2022/10/29 11:42:21;;;;;;;743.23;687.27;;;22.30;9.60;;;;;;5072589;28;20819;-72
2022/10/29 11:44:47;;;;;;;839.20;771.50;;;22.30;9.70;;;;;;5073147;28;20436;-72
2022/10/29 11:47:43;;;;;;;886.23;817.27;;;22.30;9.90;;;;;;5070430;28;20219;-73
2022/10/29 11:50:39;;;;;;;777.83;722.03;;;22.30;9.20;;;;;;5051620;28;20178;-70
2022/10/29 11:53:33;;;;;;;834.93;770.77;;;22.50;9.30;;;;;;5051938;28;20425;-71
2022/10/29 11:56:37;;;;;;;586.50;545.80;;;22.60;9.30;;;;;;5051816;28;20441;-71
2022/10/29 11:59:34;;;;;;;691.63;639.43;;;22.50;9.30;;;;;;5032831;28;20412;-71
2022/10/29 12:02:14;;;;;;;745.83;692.53;;;22.60;9.30;;;;;;5049719;28;20522;-70
2022/10/29 12:05:03;;;;;;;760.43;701.20;;;22.70;9.40;;;;;;5051389;28;20839;-70
2022/10/29 12:07:49;;;;;;;704.40;656.87;;;22.80;9.50;;;;;;5052256;28;20417;-72
2022/10/29 12:10:52;;;;;;;936.30;866.07;;;22.80;9.50;;;;;;5050559;28;20504;-71
2022/10/29 12:13:51;;;;;;;698.50;644.23;;;22.80;9.50;;;;;;5051993;28;20808;-71
2022/10/29 12:16:35;;;;;;;809.90;746.03;;;22.90;8.80;;;;;;5032215;28;20426;-71
2022/10/29 12:19:28;;;;;;;703.30;655.20;;;23.00;8.60;;;;;;5057099;28;20421;-72
2022/10/29 12:22:04;;;;;;;727.27;672.17;;;23.00;8.40;;;;;;5036525;28;20830;-72
2022/10/29 12:24:48;;;;;;;707.73;653.67;;;23.00;8.10;;;;;;5033932;28;20416;-71
2022/10/29 12:27:33;;;;;;;655.50;611.83;;;23.10;8.40;;;;;;5035295;28;20406;-71
2022/10/29 12:30:05;;;;;;;631.00;586.00;;;23.10;8.30;;;;;;5044537;28;20447;-69
2022/10/29 12:32:51;;;;;;;659.07;610.93;;;23.20;8.00;;;;;;5053843;28;20431;-70
2022/10/29 12:35:32;;;;;;;838.47;772.20;;;23.30;8.20;;;;;;5055052;28;20441;-72
2022/10/29 12:38:29;;;;;;;873.10;805.20;;;23.40;7.60;;;;;;5054284;28;20429;-71
2022/10/29 12:41:19;;;;;;;760.10;704.53;;;23.50;7.00;;;;;;5049982;28;20475;-73
2022/10/29 12:43:45;;;;;;;944.63;869.33;;;23.60;7.20;;;;;;5052625;28;20447;-70
2022/10/29 12:46:37;;;;;;;871.30;803.83;;;23.60;7.30;;;;;;5057008;28;20460;-71